Time,TemperatureF,DewpointF,PressureIn,WindDirection,WindDirectionDegrees,WindSpeedMPH,WindSpeedGustMPH,Humidity,HourlyPrecipIn,Conditions,Clouds,dailyrainin,SoftwareType,DateUTC
2013-07-10 00:00:00,81.9,69.9,30.05,SSW,194,0.0,5.0,67,0.00,,,0.00,VWS V14.01,2013-07-10 05:00:00,
2013-07-10 00:01:00,81.9,69.9,30.06,SSE,166,1.5,2.0,67,0.00,,,0.00,VWS V14.01,2013-07-10 05:01:00,
2013-07-10 00:06:00,81.8,69.8,30.06,SSE,162,0.0,2.0,67,0.00,,,0.00,VWS V14.01,2013-07-10 05:06:00,
2013-07-10 00:11:00,81.6,69.6,30.06,South,190,3.0,3.0,67,0.00,,,0.00,VWS V14.01,2013-07-10 05:11:00,
2013-07-10 00:16:00,81.6,69.6,30.06,South,191,1.5,3.0,67,0.00,,,0.00,VWS V14.01,2013-07-10 05:16:00,
2013-07-10 00:21:00,81.5,69.5,30.06,SSW,200,0.0,3.0,67,0.00,,,0.00,VWS V14.01,2013-07-10 05:21:00,
2013-07-10 00:26:00,81.5,69.5,30.06,South,185,1.5,3.0,67,0.00,,,0.00,VWS V14.01,2013-07-10 05:26:00,
2013-07-10 00:31:00,81.5,69.5,30.06,SSE,165,0.0,3.0,67,0.00,,,0.00,VWS V14.01,2013-07-10 05:31:00,
2013-07-10 00:36:00,81.4,69.4,30.06,SSE,165,0.0,3.0,67,0.00,,,0.00,VWS V14.01,2013-07-10 05:36:00,
2013-07-10 00:41:00,81.2,69.6,30.06,South,169,3.0,3.0,68,0.00,,,0.00,VWS V14.01,2013-07-10 05:41:00,
2013-07-10 00:46:00,81.2,69.6,30.06,SW,227,0.0,3.0,68,0.00,,,0.00,VWS V14.01,2013-07-10 05:46:00,
2013-07-10 00:51:00,81.0,69.4,30.06,SSE,162,0.0,3.0,68,0.00,,,0.00,VWS V14.01,2013-07-10 05:51:00,
2013-07-10 00:56:00,80.8,69.3,30.06,SSE,163,0.0,3.0,68,0.00,,,0.00,VWS V14.01,2013-07-10 05:56:00,
2013-07-10 01:00:00,81.9,69.9,30.05,SSW,194,0.0,5.0,67,0.00,,,0.00,VWS V15.00,2013-07-10 06:00:00,
2013-07-10 01:01:00,80.9,69.4,30.06,South,172,0.0,3.0,68,0.00,,,0.00,VWS V14.01,2013-07-10 06:01:00,
2013-07-10 01:06:00,80.8,69.3,30.06,SSW,200,0.0,3.0,68,0.00,,,0.00,VWS V14.01,2013-07-10 06:06:00,
2013-07-10 01:11:00,80.8,69.3,30.06,SSE,165,0.0,3.0,68,0.00,,,0.00,VWS V14.01,2013-07-10 06:11:00,
2013-07-10 01:16:00,80.7,69.2,30.06,South,180,0.0,3.0,68,0.00,,,0.00,VWS V14.01,2013-07-10 06:16:00,
2013-07-10 01:21:00,80.6,69.1,30.06,SSW,207,1.5,3.0,68,0.00,,,0.00,VWS V14.01,2013-07-10 06:21:00,
2013-07-10 01:26:00,80.5,69.0,30.06,South,172,0.0,3.0,68,0.00,,,0.00,VWS V14.01,2013-07-10 06:26:00,
2013-07-10 01:31:00,80.3,69.2,30.06,SE,139,0.0,3.0,69,0.00,,,0.00,VWS V14.01,2013-07-10 06:31:00,
2013-07-10 01:36:00,80.2,69.1,30.06,South,172,0.0,3.0,69,0.00,,,0.00,VWS V14.01,2013-07-10 06:36:00,
2013-07-10 01:41:00,80.0,68.9,30.06,South,170,0.0,3.0,69,0.00,,,0.00,VWS V14.01,2013-07-10 06:41:00,
2013-07-10 01:46:00,80.0,68.9,30.06,SE,138,1.5,3.0,69,0.00,,,0.00,VWS V14.01,2013-07-10 06:46:00,
2013-07-10 01:51:00,79.9,68.8,30.06,SSE,164,0.0,3.0,69,0.00,,,0.00,VWS V14.01,2013-07-10 06:51:00,
2013-07-10 01:56:00,79.9,68.8,30.06,SSE,163,0.0,3.0,69,0.00,,,0.00,VWS V14.01,2013-07-10 06:56:00,
2013-07-10 02:00:00,79.9,68.8,30.06,SW,225,0.0,3.0,69,0.00,,,0.00,VWS V14.01,2013-07-10 07:00:00,
2013-07-10 02:01:00,79.9,68.8,30.06,SSW,205,0.0,0.0,69,0.00,,,0.00,VWS V14.01,2013-07-10 07:01:00,
2013-07-10 02:06:00,79.8,68.7,30.06,South,179,1.5,3.0,69,0.00,,,0.00,VWS V14.01,2013-07-10 07:06:00,
2013-07-10 02:11:00,79.9,68.8,30.06,SW,227,3.0,3.0,69,0.00,,,0.00,VWS V14.01,2013-07-10 07:11:00,
2013-07-10 02:16:00,80.0,68.5,30.05,SSE,158,0.0,3.0,68,0.00,,,0.00,VWS V14.01,2013-07-10 07:16:00,
2013-07-10 02:21:00,79.9,68.4,30.05,South,185,1.5,3.0,68,0.00,,,0.00,VWS V14.01,2013-07-10 07:21:00,
2013-07-10 02:26:00,80.0,68.5,30.05,SSE,156,1.5,4.0,68,0.00,,,0.00,VWS V14.01,2013-07-10 07:26:00,
2013-07-10 02:31:00,80.1,68.6,30.05,South,185,0.0,4.0,68,0.00,,,0.00,VWS V14.01,2013-07-10 07:31:00,
2013-07-10 02:36:00,80.1,68.2,30.05,SSE,149,3.0,4.0,67,0.00,,,0.00,VWS V14.01,2013-07-10 07:36:00,
2013-07-10 02:41:00,80.1,68.2,30.05,SSW,203,0.0,5.0,67,0.00,,,0.00,VWS V14.01,2013-07-10 07:41:00,
2013-07-10 02:46:00,80.0,68.1,30.04,SSE,160,1.5,5.0,67,0.00,,,0.00,VWS V14.01,2013-07-10 07:46:00,
2013-07-10 02:51:00,79.9,68.0,30.04,SSW,193,1.5,5.0,67,0.00,,,0.00,VWS V14.01,2013-07-10 07:51:00,
2013-07-10 02:56:00,79.8,68.3,30.04,SW,224,0.0,5.0,68,0.00,,,0.00,VWS V14.01,2013-07-10 07:56:00,
2013-07-10 03:00:00,79.9,68.8,30.06,SW,225,0.0,3.0,69,0.00,,,0.00,VWS V15.00,2013-07-10 08:00:00,
2013-07-10 03:01:00,79.7,68.2,30.04,SSE,160,1.5,5.0,68,0.00,,,0.00,VWS V14.01,2013-07-10 08:01:00,
2013-07-10 03:06:00,79.6,68.1,30.05,SSW,212,0.0,5.0,68,0.00,,,0.00,VWS V14.01,2013-07-10 08:06:00,
2013-07-10 03:11:00,79.6,68.1,30.05,South,180,0.0,5.0,68,0.00,,,0.00,VWS V14.01,2013-07-10 08:11:00,
2013-07-10 03:15:00,79.6,67.7,30.05,SSW,194,0.0,5.0,67,0.00,,,0.00,VWS V14.01,2013-07-10 08:15:00,
2013-07-10 03:20:00,79.5,67.6,30.05,SSE,163,1.5,5.0,67,0.00,,,0.00,VWS V14.01,2013-07-10 08:20:00,
2013-07-10 03:25:00,79.5,67.6,30.05,SSE,160,0.0,5.0,67,0.00,,,0.00,VWS V14.01,2013-07-10 08:25:00,
2013-07-10 03:30:00,79.6,67.7,30.05,SSE,155,0.0,5.0,67,0.00,,,0.00,VWS V14.01,2013-07-10 08:30:00,
2013-07-10 03:31:00,79.6,67.7,30.05,SSE,155,0.0,5.0,67,0.00,,,0.00,VWS V14.01,2013-07-10 08:31:00,
2013-07-10 03:36:00,79.5,67.6,30.04,SSW,211,0.0,5.0,67,0.00,,,0.00,VWS V14.01,2013-07-10 08:36:00,
2013-07-10 03:40:00,79.6,67.7,30.04,South,186,0.0,5.0,67,0.00,,,0.00,VWS V14.01,2013-07-10 08:40:00,
2013-07-10 03:45:00,79.6,67.7,30.05,SSW,193,0.0,5.0,67,0.00,,,0.00,VWS V14.01,2013-07-10 08:45:00,
2013-07-10 03:50:00,79.6,67.7,30.04,SW,217,1.5,5.0,67,0.00,,,0.00,VWS V14.01,2013-07-10 08:50:00,
2013-07-10 03:55:00,79.6,67.7,30.05,SW,227,4.5,5.0,67,0.00,,,0.00,VWS V14.01,2013-07-10 08:55:00,
2013-07-10 04:00:00,79.6,67.7,30.05,South,190,1.5,2.0,67,0.00,,,0.00,VWS V14.01,2013-07-10 09:00:00,
2013-07-10 04:05:00,79.6,67.7,30.05,SE,132,0.0,3.0,67,0.00,,,0.00,VWS V14.01,2013-07-10 09:05:00,
2013-07-10 04:10:00,79.5,67.6,30.05,SSW,200,4.5,4.5,67,0.00,,,0.00,VWS V14.01,2013-07-10 09:10:00,
2013-07-10 04:15:00,79.4,67.5,30.05,SSE,165,0.0,3.0,67,0.00,,,0.00,VWS V14.01,2013-07-10 09:15:00,
2013-07-10 04:20:00,79.3,67.4,30.05,SSE,153,0.0,3.0,67,0.00,,,0.00,VWS V14.01,2013-07-10 09:20:00,
2013-07-10 04:25:00,79.1,67.2,30.05,SSE,152,0.0,3.0,67,0.00,,,0.00,VWS V14.01,2013-07-10 09:25:00,
2013-07-10 04:30:00,78.9,67.4,30.05,SSE,153,0.0,3.0,68,0.00,,,0.00,VWS V14.01,2013-07-10 09:30:00,
2013-07-10 04:35:00,78.6,67.2,30.05,SSW,210,0.0,3.0,68,0.00,,,0.00,VWS V14.01,2013-07-10 09:35:00,
2013-07-10 04:40:00,78.5,67.5,30.05,South,175,0.0,3.0,69,0.00,,,0.00,VWS V14.01,2013-07-10 09:40:00,
2013-07-10 04:45:00,78.3,67.3,30.05,SSW,203,0.0,3.0,69,0.00,,,0.00,VWS V14.01,2013-07-10 09:45:00,
2013-07-10 04:50:00,78.2,67.2,30.05,SSE,155,0.0,3.0,69,0.00,,,0.00,VWS V14.01,2013-07-10 09:50:00,
2013-07-10 04:55:00,78.0,67.4,30.04,SW,229,0.0,3.0,70,0.00,,,0.00,VWS V14.01,2013-07-10 09:55:00,
2013-07-10 05:00:00,78.0,67.4,30.05,SSE,162,1.5,3.0,70,0.00,,,0.00,VWS V14.01,2013-07-10 10:00:00,
2013-07-10 05:05:00,78.1,67.5,30.04,SSW,195,0.0,3.0,70,0.00,,,0.00,VWS V14.01,2013-07-10 10:05:00,
2013-07-10 05:10:00,78.0,67.0,30.04,SSE,151,0.0,3.0,69,0.00,,,0.00,VWS V14.01,2013-07-10 10:10:00,
2013-07-10 05:15:00,77.9,67.3,30.05,SSE,160,0.0,3.0,70,0.00,,,0.00,VWS V14.01,2013-07-10 10:15:00,
2013-07-10 05:20:00,77.7,67.1,30.05,SSE,160,0.0,3.0,70,0.00,,,0.00,VWS V14.01,2013-07-10 10:20:00,
2013-07-10 05:25:00,77.5,66.9,30.05,SSE,160,0.0,3.0,70,0.00,,,0.00,VWS V14.01,2013-07-10 10:25:00,
2013-07-10 05:30:00,77.5,66.9,30.05,South,183,0.0,3.0,70,0.00,,,0.00,VWS V14.01,2013-07-10 10:30:00,
2013-07-10 05:35:00,77.5,66.9,30.05,South,170,0.0,3.0,70,0.00,,,0.00,VWS V14.01,2013-07-10 10:35:00,
2013-07-10 05:40:00,77.5,67.4,30.05,South,170,0.0,3.0,71,0.00,,,0.00,VWS V14.01,2013-07-10 10:40:00,
2013-07-10 05:45:00,77.3,67.2,30.05,South,170,0.0,3.0,71,0.00,,,0.00,VWS V14.01,2013-07-10 10:45:00,
2013-07-10 05:50:00,77.0,66.9,30.05,South,170,0.0,3.0,71,0.00,,,0.00,VWS V14.01,2013-07-10 10:50:00,
2013-07-10 05:55:00,76.9,66.8,30.05,South,169,0.0,3.0,71,0.00,,,0.00,VWS V14.01,2013-07-10 10:55:00,
2013-07-10 06:00:00,76.8,66.7,30.05,South,169,0.0,0.0,71,0.00,,,0.00,VWS V14.01,2013-07-10 11:00:00,
2013-07-10 06:05:00,76.8,66.7,30.05,South,169,0.0,1.0,71,0.00,,,0.00,VWS V14.01,2013-07-10 11:05:00,
2013-07-10 06:10:00,76.8,66.7,30.05,SSE,163,0.0,1.0,71,0.00,,,0.00,VWS V14.01,2013-07-10 11:10:00,
2013-07-10 06:15:00,76.8,66.7,30.05,SSE,163,0.0,1.0,71,0.00,,,0.00,VWS V14.01,2013-07-10 11:15:00,
2013-07-10 06:20:00,76.8,66.7,30.06,SSE,163,0.0,1.0,71,0.00,,,0.00,VWS V14.01,2013-07-10 11:20:00,
2013-07-10 06:25:00,76.8,66.7,30.05,SSE,163,0.0,1.0,71,0.00,,,0.00,VWS V14.01,2013-07-10 11:25:00,
2013-07-10 06:30:00,76.8,66.7,30.05,SW,222,0.0,1.0,71,0.00,,,0.00,VWS V14.01,2013-07-10 11:30:00,
2013-07-10 06:35:00,76.8,66.7,30.06,SW,222,0.0,1.0,71,0.00,,,0.00,VWS V14.01,2013-07-10 11:35:00,
2013-07-10 06:40:00,76.8,66.7,30.05,SW,218,0.0,1.0,71,0.00,,,0.00,VWS V14.01,2013-07-10 11:40:00,
2013-07-10 06:45:00,76.8,66.7,30.06,SW,218,0.0,1.0,71,0.00,,,0.00,VWS V14.01,2013-07-10 11:45:00,
2013-07-10 06:50:00,77.0,67.3,30.05,SW,219,0.0,1.0,72,0.00,,,0.00,VWS V14.01,2013-07-10 11:50:00,
2013-07-10 06:55:00,77.4,67.3,30.05,SW,218,0.0,1.0,71,0.00,,,0.00,VWS V14.01,2013-07-10 11:55:00,
2013-07-10 07:00:00,77.9,67.8,30.05,SSW,194,0.0,1.0,71,0.00,,,0.00,VWS V14.01,2013-07-10 12:00:00,
2013-07-10 07:05:00,78.3,67.7,30.05,SSW,194,0.0,1.0,70,0.00,,,0.00,VWS V14.01,2013-07-10 12:05:00,
2013-07-10 07:10:00,79.2,67.7,30.06,SSW,194,0.0,1.0,68,0.00,,,0.00,VWS V14.01,2013-07-10 12:10:00,
2013-07-10 07:15:00,80.5,69.0,30.06,SSW,194,0.0,1.0,68,0.00,,,0.00,VWS V14.01,2013-07-10 12:15:00,
2013-07-10 07:20:00,81.3,68.9,30.06,SSW,194,0.0,1.0,66,0.00,,,0.00,VWS V14.01,2013-07-10 12:20:00,
2013-07-10 07:25:00,81.7,69.2,30.06,SSW,193,0.0,1.0,66,0.00,,,0.00,VWS V14.01,2013-07-10 12:25:00,
2013-07-10 07:30:00,82.5,69.6,30.07,SSW,194,0.0,1.0,65,0.00,,,0.00,VWS V14.01,2013-07-10 12:30:00,
2013-07-10 07:35:00,82.9,69.9,30.07,SSW,193,0.0,1.0,65,0.00,,,0.00,VWS V14.01,2013-07-10 12:35:00,
2013-07-10 07:40:00,83.0,69.1,30.07,ESE,121,0.0,1.0,63,0.00,,,0.00,VWS V14.01,2013-07-10 12:40:00,
2013-07-10 07:45:00,82.7,70.2,30.07,NNW,333,1.5,1.5,66,0.00,,,0.00,VWS V14.01,2013-07-10 12:45:00,
2013-07-10 07:50:00,82.2,70.2,30.07,NNW,333,0.0,1.0,67,0.00,,,0.00,VWS V14.01,2013-07-10 12:50:00,
2013-07-10 07:55:00,82.4,70.3,30.07,NNW,333,0.0,1.0,67,0.00,,,0.00,VWS V14.01,2013-07-10 12:55:00,
2013-07-10 08:00:00,82.7,69.3,30.07,NNW,335,0.0,0.0,64,0.00,,,0.00,VWS V14.01,2013-07-10 13:00:00,
2013-07-10 08:05:00,82.5,69.6,30.07,NNW,346,0.0,2.0,65,0.00,,,0.00,VWS V14.01,2013-07-10 13:05:00,
2013-07-10 08:10:00,82.2,70.2,30.07,North,4,0.0,2.0,67,0.00,,,0.00,VWS V14.01,2013-07-10 13:10:00,
2013-07-10 08:15:00,82.6,71.0,30.07,NNE,20,0.0,2.0,68,0.00,,,0.00,VWS V14.01,2013-07-10 13:15:00,
2013-07-10 08:20:00,82.9,70.4,30.07,ENE,61,0.0,3.0,66,0.00,,,0.00,VWS V14.01,2013-07-10 13:20:00,
2013-07-10 08:25:00,83.4,70.4,30.07,ENE,61,0.0,3.0,65,0.00,,,0.00,VWS V14.01,2013-07-10 13:25:00,
2013-07-10 08:30:00,83.8,69.9,30.07,SE,134,0.0,3.0,63,0.00,,,0.00,VWS V14.01,2013-07-10 13:30:00,
2013-07-10 08:35:00,84.1,70.2,30.07,SE,141,0.0,3.0,63,0.00,,,0.00,VWS V14.01,2013-07-10 13:35:00,
2013-07-10 08:40:00,84.3,70.3,30.07,SE,141,0.0,3.0,63,0.00,,,0.00,VWS V14.01,2013-07-10 13:40:00,
2013-07-10 08:45:00,84.8,69.9,30.07,SSE,159,3.0,3.0,61,0.00,,,0.00,VWS V14.01,2013-07-10 13:45:00,
2013-07-10 08:50:00,84.7,70.7,30.07,SSE,156,0.0,3.0,63,0.00,,,0.00,VWS V14.01,2013-07-10 13:50:00,
2013-07-10 08:55:00,84.2,68.8,30.07,SSE,157,0.0,3.0,60,0.00,,,0.00,VWS V14.01,2013-07-10 13:55:00,
2013-07-10 09:00:00,84.1,69.2,30.07,South,174,3.0,3.0,61,0.00,,,0.00,VWS V14.01,2013-07-10 14:00:00,
2013-07-10 09:05:00,84.4,69.5,30.07,SSW,202,1.5,4.0,61,0.00,,,0.00,VWS V14.01,2013-07-10 14:05:00,
2013-07-10 09:10:00,84.6,69.2,30.07,South,176,0.0,4.0,60,0.00,,,0.00,VWS V14.01,2013-07-10 14:10:00,
2013-07-10 09:15:00,84.6,69.7,30.07,SW,236,0.0,4.0,61,0.00,,,0.00,VWS V14.01,2013-07-10 14:15:00,
2013-07-10 09:20:00,84.7,69.3,30.06,SSE,167,0.0,6.0,60,0.00,,,0.00,VWS V14.01,2013-07-10 14:20:00,
2013-07-10 09:25:00,84.9,69.5,30.06,ESE,113,7.5,7.5,60,0.00,,,0.00,VWS V14.01,2013-07-10 14:25:00,
2013-07-10 09:30:00,85.5,70.0,30.06,SSW,204,1.5,6.0,60,0.00,,,0.00,VWS V14.01,2013-07-10 14:30:00,
2013-07-10 09:35:00,85.4,69.4,30.06,South,173,1.5,6.0,59,0.00,,,0.00,VWS V14.01,2013-07-10 14:35:00,
2013-07-10 09:40:00,86.0,70.0,30.06,SSE,155,3.0,6.0,59,0.00,,,0.00,VWS V14.01,2013-07-10 14:40:00,
2013-07-10 09:45:00,86.6,70.1,30.05,SSW,198,3.0,6.0,58,0.00,,,0.00,VWS V14.01,2013-07-10 14:45:00,
2013-07-10 09:50:00,87.1,70.0,30.05,South,170,1.5,7.0,57,0.00,,,0.00,VWS V14.01,2013-07-10 14:50:00,
2013-07-10 09:55:00,87.6,70.5,30.05,SSE,160,1.5,7.0,57,0.00,,,0.00,VWS V14.01,2013-07-10 14:55:00,
2013-07-10 10:00:00,87.7,70.6,30.05,South,187,0.0,2.0,57,0.00,,,0.00,VWS V14.01,2013-07-10 15:00:00,
2013-07-10 10:05:00,87.8,69.6,30.05,SW,217,1.5,6.0,55,0.00,,,0.00,VWS V14.01,2013-07-10 15:05:00,
2013-07-10 10:10:00,87.8,70.2,30.05,South,187,0.0,7.0,56,0.00,,,0.00,VWS V14.01,2013-07-10 15:10:00,
2013-07-10 10:15:00,87.9,69.2,30.06,SW,227,1.5,7.0,54,0.00,,,0.00,VWS V14.01,2013-07-10 15:15:00,
2013-07-10 10:20:00,88.1,69.9,30.06,West,260,1.5,7.0,55,0.00,,,0.00,VWS V14.01,2013-07-10 15:20:00,
2013-07-10 10:25:00,88.3,70.1,30.06,SW,228,1.5,8.0,55,0.00,,,0.00,VWS V14.01,2013-07-10 15:25:00,
2013-07-10 10:30:00,88.4,69.7,30.05,SSW,205,1.5,8.0,54,0.00,,,0.00,VWS V14.01,2013-07-10 15:30:00,
2013-07-10 10:35:00,88.3,70.1,30.06,South,177,7.5,8.0,55,0.00,,,0.00,VWS V14.01,2013-07-10 15:35:00,
2013-07-10 10:40:00,88.2,69.5,30.05,South,183,6.0,9.0,54,0.00,,,0.00,VWS V14.01,2013-07-10 15:40:00,
2013-07-10 10:45:00,88.5,70.8,30.05,SE,146,7.5,9.0,56,0.00,,,0.00,VWS V14.01,2013-07-10 15:45:00,
2013-07-10 10:50:00,88.6,69.3,30.05,SSW,207,1.5,9.0,53,0.00,,,0.00,VWS V14.01,2013-07-10 15:50:00,
2013-07-10 10:55:00,89.0,70.2,30.06,WSW,242,3.0,9.0,54,0.00,,,0.00,VWS V14.01,2013-07-10 15:55:00,
2013-07-10 11:00:00,89.7,70.9,30.06,SSW,201,1.5,9.0,54,0.00,,,0.00,VWS V14.01,2013-07-10 16:00:00,
2013-07-10 11:05:00,90.2,70.2,30.06,SSW,211,0.0,9.0,52,0.00,,,0.00,VWS V14.01,2013-07-10 16:05:00,
2013-07-10 11:10:00,90.7,71.2,30.06,SSE,166,7.5,9.0,53,0.00,,,0.00,VWS V14.01,2013-07-10 16:10:00,
2013-07-10 11:15:00,90.9,71.4,30.06,SE,134,0.0,9.0,53,0.00,,,0.00,VWS V14.01,2013-07-10 16:15:00,
2013-07-10 11:20:00,91.9,71.2,30.05,SSW,198,1.5,9.0,51,0.00,,,0.00,VWS V14.01,2013-07-10 16:20:00,
2013-07-10 11:25:00,92.3,71.0,30.05,SW,217,7.5,9.0,50,0.00,,,0.00,VWS V14.01,2013-07-10 16:25:00,
2013-07-10 11:30:00,92.1,70.8,30.05,SSW,198,3.0,9.0,50,0.00,,,0.00,VWS V14.01,2013-07-10 16:30:00,
2013-07-10 11:35:00,92.0,70.7,30.05,South,176,3.0,9.0,50,0.00,,,0.00,VWS V14.01,2013-07-10 16:35:00,
2013-07-10 11:40:00,91.7,71.6,30.05,SW,218,6.0,11.0,52,0.00,,,0.00,VWS V14.01,2013-07-10 16:40:00,
2013-07-10 11:45:00,92.1,72.0,30.05,SSW,193,7.5,11.0,52,0.00,,,0.00,VWS V14.01,2013-07-10 16:45:00,
2013-07-10 11:50:00,92.7,72.5,30.05,SSW,207,1.5,11.0,52,0.00,,,0.00,VWS V14.01,2013-07-10 16:50:00,
2013-07-10 11:55:00,93.1,71.7,30.05,WSW,248,3.0,11.0,50,0.00,,,0.00,VWS V14.01,2013-07-10 16:55:00,
2013-07-10 12:00:00,93.3,71.3,30.05,South,191,3.0,3.0,49,0.00,,,0.00,VWS V14.01,2013-07-10 17:00:00,
2013-07-10 12:05:00,93.5,71.5,30.05,South,174,1.5,3.0,49,0.00,,,0.00,VWS V14.01,2013-07-10 17:05:00,
2013-07-10 12:10:00,94.1,72.6,30.05,North,353,1.5,3.0,50,0.00,,,0.00,VWS V14.01,2013-07-10 17:10:00,
2013-07-10 12:15:00,94.5,71.8,30.05,SSW,205,1.5,3.0,48,0.00,,,0.00,VWS V14.01,2013-07-10 17:15:00,
2013-07-10 12:20:00,95.2,73.6,30.05,NW,316,1.5,3.0,50,0.00,,,0.00,VWS V14.01,2013-07-10 17:20:00,
2013-07-10 12:25:00,95.6,71.5,30.05,NNE,33,0.0,3.0,46,0.00,,,0.00,VWS V14.01,2013-07-10 17:25:00,
2013-07-10 12:30:00,95.8,73.0,30.05,East,96,0.0,3.0,48,0.00,,,0.00,VWS V14.01,2013-07-10 17:30:00,
2013-07-10 12:35:00,96.2,72.1,30.04,NE,44,0.0,3.0,46,0.00,,,0.00,VWS V14.01,2013-07-10 17:35:00,
2013-07-10 12:40:00,96.5,71.7,30.05,WSW,252,0.0,3.0,45,0.00,,,0.00,VWS V14.01,2013-07-10 17:40:00,
2013-07-10 12:45:00,96.6,71.8,30.05,SSE,163,0.0,3.0,45,0.00,,,0.00,VWS V14.01,2013-07-10 17:45:00,
2013-07-10 12:50:00,96.7,71.9,30.05,NNE,20,3.0,3.0,45,0.00,,,0.00,VWS V14.01,2013-07-10 17:50:00,
2013-07-10 12:55:00,95.8,71.7,30.05,SSW,200,1.5,5.0,46,0.00,,,0.00,VWS V14.01,2013-07-10 17:55:00,
2013-07-10 13:00:00,95.8,72.3,30.05,NW,319,1.5,5.0,47,0.00,,,0.00,VWS V14.01,2013-07-10 18:00:00,
2013-07-10 13:05:00,95.7,72.9,30.05,ENE,59,0.0,5.0,48,0.00,,,0.00,VWS V14.01,2013-07-10 18:05:00,
2013-07-10 13:10:00,95.7,71.6,30.05,NE,45,0.0,5.0,46,0.00,,,0.00,VWS V14.01,2013-07-10 18:10:00,
2013-07-10 13:15:00,95.9,71.2,30.04,SW,214,1.5,5.0,45,0.00,,,0.00,VWS V14.01,2013-07-10 18:15:00,
2013-07-10 13:20:00,96.3,72.8,30.04,NW,317,3.0,5.0,47,0.00,,,0.00,VWS V14.01,2013-07-10 18:20:00,
2013-07-10 13:25:00,96.6,71.1,30.04,SSW,201,1.5,5.0,44,0.00,,,0.00,VWS V14.01,2013-07-10 18:25:00,
2013-07-10 13:30:00,96.5,72.3,30.03,North,8,0.0,6.0,46,0.00,,,0.00,VWS V14.01,2013-07-10 18:30:00,
2013-07-10 13:35:00,96.7,73.2,30.03,NNE,30,0.0,6.0,47,0.00,,,0.00,VWS V14.01,2013-07-10 18:35:00,
2013-07-10 14:00:00,97.1,73.5,30.02,SW,225,1.5,1.5,47,0.00,,,0.00,VWS V14.01,2013-07-10 19:00:00,
2013-07-10 14:05:00,97.5,71.9,30.02,ESE,114,0.0,3.0,44,0.00,,,0.00,VWS V14.01,2013-07-10 19:05:00,
2013-07-10 14:10:00,97.5,72.6,30.02,South,183,0.0,3.0,45,0.00,,,0.00,VWS V14.01,2013-07-10 19:10:00,
2013-07-10 14:15:00,97.7,72.1,30.02,NNE,29,4.5,8.0,44,0.00,,,0.00,VWS V14.01,2013-07-10 19:15:00,
2013-07-10 14:20:00,97.7,72.1,30.02,SSE,153,1.5,8.0,44,0.00,,,0.00,VWS V14.01,2013-07-10 19:20:00,
2013-07-10 14:25:00,98.0,72.4,30.01,ESE,107,1.5,8.0,44,0.00,,,0.00,VWS V14.01,2013-07-10 19:25:00,
2013-07-10 14:30:00,98.4,72.8,30.01,ESE,105,3.0,8.0,44,0.00,,,0.00,VWS V14.01,2013-07-10 19:30:00,
2013-07-10 14:35:00,98.6,70.8,30.01,ENE,64,1.5,8.0,41,0.00,,,0.00,VWS V14.01,2013-07-10 19:35:00,
2013-07-10 14:40:00,99.0,72.6,30.01,NW,304,3.0,8.0,43,0.00,,,0.00,VWS V14.01,2013-07-10 19:40:00,
2013-07-10 14:45:00,98.7,72.3,30.01,NNE,32,0.0,8.0,43,0.00,,,0.00,VWS V14.01,2013-07-10 19:45:00,
2013-07-10 14:50:00,98.9,73.2,30.01,East,99,0.0,8.0,44,0.00,,,0.00,VWS V14.01,2013-07-10 19:50:00,
2013-07-10 14:55:00,98.8,71.7,30.01,SSE,162,3.0,8.0,42,0.00,,,0.00,VWS V14.01,2013-07-10 19:55:00,
2013-07-10 15:00:00,98.5,72.2,30.01,NNW,328,4.5,8.0,43,0.00,,,0.00,VWS V14.01,2013-07-10 20:00:00,
2013-07-10 15:05:00,98.3,72.0,30.00,NE,37,0.0,8.0,43,0.00,,,0.00,VWS V14.01,2013-07-10 20:05:00,
2013-07-10 15:10:00,98.3,72.7,30.00,NNW,337,0.0,8.0,44,0.00,,,0.00,VWS V14.01,2013-07-10 20:10:00,
2013-07-10 15:15:00,98.5,72.2,30.00,NNE,28,0.0,8.0,43,0.00,,,0.00,VWS V14.01,2013-07-10 20:15:00,
2013-07-10 15:20:00,98.9,71.8,30.00,SSE,162,3.0,8.0,42,0.00,,,0.00,VWS V14.01,2013-07-10 20:20:00,
2013-07-10 15:25:00,98.8,71.0,30.00,WNW,288,7.5,8.0,41,0.00,,,0.00,VWS V14.01,2013-07-10 20:25:00,
2013-07-10 15:30:00,97.6,71.3,30.00,North,5,1.5,10.0,43,0.00,,,0.00,VWS V14.01,2013-07-10 20:30:00,
2013-07-10 15:35:00,97.6,70.7,29.99,ESE,108,0.0,10.0,42,0.00,,,0.00,VWS V14.01,2013-07-10 20:35:00,
2013-07-10 15:40:00,98.0,71.0,29.99,NW,306,3.0,10.0,42,0.00,,,0.00,VWS V14.01,2013-07-10 20:40:00,
2013-07-10 15:45:00,98.3,72.0,29.99,NE,49,0.0,10.0,43,0.00,,,0.00,VWS V14.01,2013-07-10 20:45:00,
2013-07-10 15:50:00,98.5,72.2,30.00,West,276,0.0,10.0,43,0.00,,,0.00,VWS V14.01,2013-07-10 20:50:00,
2013-07-10 15:55:00,98.6,71.6,30.00,North,349,3.0,10.0,42,0.00,,,0.00,VWS V14.01,2013-07-10 20:55:00,
2013-07-10 16:00:00,98.7,72.3,29.99,North,360,0.0,1.0,43,0.00,,,0.00,VWS V14.01,2013-07-10 21:00:00,
2013-07-10 16:05:00,99.2,71.4,29.99,West,261,0.0,2.0,41,0.00,,,0.00,VWS V14.01,2013-07-10 21:05:00,
2013-07-10 16:10:00,99.4,72.3,29.98,NNE,28,1.5,3.0,42,0.00,,,0.00,VWS V14.01,2013-07-10 21:10:00,
2013-07-10 16:15:00,98.3,72.7,29.98,NW,311,1.5,5.0,44,0.00,,,0.00,VWS V14.01,2013-07-10 21:15:00,
2013-07-10 16:20:00,97.3,71.8,29.98,NNE,22,7.5,7.5,44,0.00,,,0.00,VWS V14.01,2013-07-10 21:20:00,
2013-07-10 16:25:00,96.7,71.9,29.97,North,353,0.0,7.0,45,0.00,,,0.00,VWS V14.01,2013-07-10 21:25:00,
2013-07-10 16:30:00,96.4,72.3,29.97,NW,314,4.5,7.0,46,0.00,,,0.00,VWS V14.01,2013-07-10 21:30:00,
2013-07-10 16:35:00,96.5,72.3,29.97,NNW,336,4.5,7.0,46,0.00,,,0.00,VWS V14.01,2013-07-10 21:35:00,
2013-07-10 16:40:00,97.1,72.2,29.97,ESE,117,0.0,7.0,45,0.00,,,0.00,VWS V14.01,2013-07-10 21:40:00,
2013-07-10 16:45:00,97.3,72.4,29.97,North,1,6.0,7.0,45,0.00,,,0.00,VWS V14.01,2013-07-10 21:45:00,
2013-07-10 16:50:00,96.7,71.9,29.97,NW,304,1.5,7.0,45,0.00,,,0.00,VWS V14.01,2013-07-10 21:50:00,
2013-07-10 16:55:00,96.0,71.2,29.96,NW,312,0.0,7.0,45,0.00,,,0.00,VWS V14.01,2013-07-10 21:55:00,
2013-07-10 17:00:00,95.4,71.3,29.96,NNW,338,0.0,7.0,46,0.00,,,0.00,VWS V14.01,2013-07-10 22:00:00,
2013-07-10 17:05:00,95.1,72.3,29.95,North,357,1.5,7.0,48,0.00,,,0.00,VWS V14.01,2013-07-10 22:05:00,
2013-07-10 17:10:00,95.5,72.1,29.95,North,353,1.5,7.0,47,0.00,,,0.00,VWS V14.01,2013-07-10 22:10:00,
2013-07-10 17:15:00,95.8,73.0,29.95,ESE,123,0.0,7.0,48,0.00,,,0.00,VWS V14.01,2013-07-10 22:15:00,
2013-07-10 17:20:00,96.0,72.5,29.95,NNE,23,1.5,7.0,47,0.00,,,0.00,VWS V14.01,2013-07-10 22:20:00,
2013-07-10 17:25:00,96.3,72.2,29.95,NE,46,3.0,7.0,46,0.00,,,0.00,VWS V14.01,2013-07-10 22:25:00,
2013-07-10 17:30:00,96.6,72.4,29.95,NNE,18,0.0,7.0,46,0.00,,,0.00,VWS V14.01,2013-07-10 22:30:00,
2013-07-10 17:35:00,96.8,72.6,29.95,NW,306,0.0,7.0,46,0.00,,,0.00,VWS V14.01,2013-07-10 22:35:00,
2013-07-10 17:40:00,96.6,72.4,29.95,NNW,328,0.0,7.0,46,0.00,,,0.00,VWS V14.01,2013-07-10 22:40:00,
2013-07-10 17:45:00,96.2,72.7,29.95,NE,40,0.0,7.0,47,0.00,,,0.00,VWS V14.01,2013-07-10 22:45:00,
2013-07-10 17:50:00,95.7,71.6,29.95,North,10,1.5,7.0,46,0.00,,,0.00,VWS V14.01,2013-07-10 22:50:00,
2013-07-10 17:55:00,95.2,71.8,29.95,NW,318,1.5,7.0,47,0.00,,,0.00,VWS V14.01,2013-07-10 22:55:00,
2013-07-10 18:00:00,94.6,71.3,29.95,NNW,333,0.0,2.0,47,0.00,,,0.00,VWS V14.01,2013-07-10 23:00:00,
2013-07-10 18:05:00,94.3,71.6,29.95,NNW,328,0.0,3.0,48,0.00,,,0.00,VWS V14.01,2013-07-10 23:05:00,
2013-07-10 18:10:00,94.6,72.5,29.95,North,5,1.5,4.0,49,0.00,,,0.00,VWS V14.01,2013-07-10 23:10:00,
2013-07-10 18:15:00,94.9,72.2,29.94,NNW,345,3.0,4.0,48,0.00,,,0.00,VWS V14.01,2013-07-10 23:15:00,
2013-07-10 18:20:00,95.0,72.9,29.95,North,10,1.5,4.0,49,0.00,,,0.00,VWS V14.01,2013-07-10 23:20:00,
2013-07-10 18:25:00,94.9,72.8,29.95,NNW,332,1.5,4.0,49,0.00,,,0.00,VWS V14.01,2013-07-10 23:25:00,
2013-07-10 18:30:00,94.9,72.2,29.96,NNW,336,0.0,4.0,48,0.00,,,0.00,VWS V14.01,2013-07-10 23:30:00,
2013-07-10 18:35:00,94.7,72.0,29.96,NNW,328,0.0,4.0,48,0.00,,,0.00,VWS V14.01,2013-07-10 23:35:00,
2013-07-10 18:40:00,94.6,71.9,29.96,North,6,1.5,4.0,48,0.00,,,0.00,VWS V14.01,2013-07-10 23:40:00,
2013-07-10 18:45:00,94.4,71.7,29.96,NW,307,4.5,5.0,48,0.00,,,0.00,VWS V14.01,2013-07-10 23:45:00,
2013-07-10 18:50:00,94.2,72.1,29.95,NNW,346,1.5,5.0,49,0.00,,,0.00,VWS V14.01,2013-07-10 23:50:00,
2013-07-10 18:55:00,94.1,72.0,29.95,NNE,20,3.0,5.0,49,0.00,,,0.00,VWS V14.01,2013-07-10 23:55:00,
2013-07-10 19:00:00,94.0,72.5,29.95,NW,325,3.0,5.0,50,0.00,,,0.00,VWS V14.01,2013-07-11 00:00:00,
2013-07-10 19:05:00,93.9,71.8,29.96,NNW,348,1.5,5.0,49,0.00,,,0.00,VWS V14.01,2013-07-11 00:05:00,
2013-07-10 19:10:00,93.8,71.8,29.96,WNW,302,1.5,5.0,49,0.00,,,0.00,VWS V14.01,2013-07-11 00:10:00,
2013-07-10 19:15:00,93.7,71.7,29.96,NNW,328,3.0,5.0,49,0.00,,,0.00,VWS V14.01,2013-07-11 00:15:00,
2013-07-10 19:20:00,93.5,71.5,29.96,NNE,24,3.0,5.0,49,0.00,,,0.00,VWS V14.01,2013-07-11 00:20:00,
2013-07-10 19:25:00,93.4,72.0,29.95,NNW,336,0.0,5.0,50,0.00,,,0.00,VWS V14.01,2013-07-11 00:25:00,
2013-07-10 19:30:00,93.2,71.8,29.96,NE,41,3.0,5.0,50,0.00,,,0.00,VWS V14.01,2013-07-11 00:30:00,
2013-07-10 19:35:00,93.1,71.7,29.96,NNW,348,1.5,5.0,50,0.00,,,0.00,VWS V14.01,2013-07-11 00:35:00,
2013-07-10 19:40:00,92.9,72.1,29.96,NNE,25,0.0,5.0,51,0.00,,,0.00,VWS V14.01,2013-07-11 00:40:00,
2013-07-10 19:45:00,92.7,71.9,29.96,NNW,340,0.0,5.0,51,0.00,,,0.00,VWS V14.01,2013-07-11 00:45:00,
2013-07-10 19:50:00,92.4,71.7,29.96,NW,325,3.0,5.0,51,0.00,,,0.00,VWS V14.01,2013-07-11 00:50:00,
2013-07-10 19:55:00,92.3,71.0,29.96,NNW,333,3.0,5.0,50,0.00,,,0.00,VWS V14.01,2013-07-11 00:55:00,
2013-07-10 20:00:00,92.1,70.8,29.96,NW,325,1.5,2.0,50,0.00,,,0.00,VWS V14.01,2013-07-11 01:00:00,
2013-07-10 20:05:00,91.9,70.6,29.96,North,353,0.0,4.0,50,0.00,,,0.00,VWS V14.01,2013-07-11 01:05:00,
2013-07-10 20:10:00,91.8,70.5,29.96,NE,44,1.5,5.0,50,0.00,,,0.00,VWS V14.01,2013-07-11 01:10:00,
2013-07-10 20:15:00,91.6,70.3,29.96,North,356,1.5,5.0,50,0.00,,,0.00,VWS V14.01,2013-07-11 01:15:00,
2013-07-10 20:20:00,91.4,70.2,29.96,North,356,0.0,5.0,50,0.00,,,0.00,VWS V14.01,2013-07-11 01:20:00,
2013-07-10 20:25:00,91.1,70.5,29.97,North,354,0.0,5.0,51,0.00,,,0.00,VWS V14.01,2013-07-11 01:25:00,
2013-07-10 20:30:00,90.8,70.8,29.97,North,353,0.0,5.0,52,0.00,,,0.00,VWS V14.01,2013-07-11 01:30:00,
2013-07-10 20:35:00,90.4,70.4,29.97,North,360,0.0,5.0,52,0.00,,,0.00,VWS V14.01,2013-07-11 01:35:00,
2013-07-10 20:40:00,90.1,70.1,29.97,North,9,0.0,5.0,52,0.00,,,0.00,VWS V14.01,2013-07-11 01:40:00,
2013-07-10 20:45:00,89.7,70.9,29.97,NE,50,0.0,5.0,54,0.00,,,0.00,VWS V14.01,2013-07-11 01:45:00,
2013-07-10 20:50:00,89.3,70.5,29.98,SSW,208,1.5,5.0,54,0.00,,,0.00,VWS V14.01,2013-07-11 01:50:00,
2013-07-10 20:55:00,88.3,70.6,29.98,SSW,198,0.0,5.0,56,0.00,,,0.00,VWS V14.01,2013-07-11 01:55:00,
2013-07-10 21:00:00,87.5,69.9,29.99,SSW,196,0.0,5.0,56,0.00,,,0.00,VWS V14.01,2013-07-11 02:00:00,
2013-07-10 21:05:00,87.0,69.9,29.99,SSE,167,1.5,5.0,57,0.00,,,0.00,VWS V14.01,2013-07-11 02:05:00,
2013-07-10 21:10:00,86.4,69.4,30.00,South,170,3.0,5.0,57,0.00,,,0.00,VWS V14.01,2013-07-11 02:10:00,
2013-07-10 21:15:00,85.6,69.1,30.00,SSW,208,0.0,5.0,58,0.00,,,0.00,VWS V14.01,2013-07-11 02:15:00,
2013-07-10 21:20:00,85.0,69.1,30.00,South,178,1.5,5.0,59,0.00,,,0.00,VWS V14.01,2013-07-11 02:20:00,
2013-07-10 21:25:00,84.5,69.1,30.00,SE,145,1.5,5.0,60,0.00,,,0.00,VWS V14.01,2013-07-11 02:25:00,
2013-07-10 21:30:00,84.1,69.2,30.01,SSE,166,1.5,5.0,61,0.00,,,0.00,VWS V14.01,2013-07-11 02:30:00,
2013-07-10 21:35:00,83.7,68.8,30.00,SW,232,0.0,5.0,61,0.00,,,0.00,VWS V14.01,2013-07-11 02:35:00,
2013-07-10 21:40:00,83.4,68.6,30.01,SSE,159,0.0,5.0,61,0.00,,,0.00,VWS V14.01,2013-07-11 02:40:00,
2013-07-10 21:45:00,83.2,68.8,30.01,South,170,0.0,5.0,62,0.00,,,0.00,VWS V14.01,2013-07-11 02:45:00,
2013-07-10 21:50:00,83.0,68.7,30.01,SSE,163,6.0,6.0,62,0.00,,,0.00,VWS V14.01,2013-07-11 02:50:00,
2013-07-10 21:55:00,83.1,68.3,30.02,SSW,198,0.0,7.0,61,0.00,,,0.00,VWS V14.01,2013-07-11 02:55:00,
2013-07-10 22:00:00,83.0,68.2,30.02,South,184,0.0,0.0,61,0.00,,,0.00,VWS V14.01,2013-07-11 03:00:00,
2013-07-10 22:05:00,82.9,68.1,30.02,SSE,149,0.0,3.0,61,0.00,,,0.00,VWS V14.01,2013-07-11 03:05:00,
2013-07-10 22:10:00,82.7,67.9,30.02,SSW,207,0.0,3.0,61,0.00,,,0.00,VWS V14.01,2013-07-11 03:10:00,
2013-07-10 22:15:00,82.5,68.2,30.02,SSE,165,0.0,3.0,62,0.00,,,0.00,VWS V14.01,2013-07-11 03:15:00,
2013-07-10 22:20:00,82.2,67.9,30.02,South,187,0.0,3.0,62,0.00,,,0.00,VWS V14.01,2013-07-11 03:20:00,
2013-07-10 22:25:00,82.0,68.2,30.02,SSE,150,0.0,3.0,63,0.00,,,0.00,VWS V14.01,2013-07-11 03:25:00,
2013-07-10 22:30:00,81.7,68.3,30.02,SSE,149,0.0,3.0,64,0.00,,,0.00,VWS V14.01,2013-07-11 03:30:00,
2013-07-10 22:35:00,81.4,68.5,30.02,SSE,152,0.0,3.0,65,0.00,,,0.00,VWS V14.01,2013-07-11 03:35:00,
2013-07-10 22:40:00,81.1,68.7,30.02,SSE,155,0.0,3.0,66,0.00,,,0.00,VWS V14.01,2013-07-11 03:40:00,
2013-07-10 22:45:00,80.9,68.9,30.02,SSE,156,0.0,3.0,67,0.00,,,0.00,VWS V14.01,2013-07-11 03:45:00,
2013-07-10 22:50:00,80.6,68.6,30.02,SSE,156,0.0,3.0,67,0.00,,,0.00,VWS V14.01,2013-07-11 03:50:00,
2013-07-10 22:55:00,80.4,68.9,30.02,SSE,157,1.5,5.0,68,0.00,,,0.00,VWS V14.01,2013-07-11 03:55:00,
2013-07-10 23:00:00,80.3,68.8,30.02,SSE,156,0.0,5.0,68,0.00,,,0.00,VWS V14.01,2013-07-11 04:00:00,
2013-07-10 23:01:00,80.3,69.2,30.02,SSE,157,0.0,5.0,69,0.00,,,0.00,VWS V14.01,2013-07-11 04:01:00,
2013-07-10 23:06:00,80.0,68.9,30.02,SSE,156,0.0,5.0,69,0.00,,,0.00,VWS V14.01,2013-07-11 04:06:00,
2013-07-10 23:11:00,79.7,68.6,30.02,SSE,157,0.0,5.0,69,0.00,,,0.00,VWS V14.01,2013-07-11 04:11:00,
2013-07-10 23:16:00,79.5,68.9,30.01,SSE,156,0.0,5.0,70,0.00,,,0.00,VWS V14.01,2013-07-11 04:16:00,
2013-07-10 23:21:00,79.2,69.0,30.01,SE,127,0.0,5.0,71,0.00,,,0.00,VWS V14.01,2013-07-11 04:21:00,
2013-07-10 23:26:00,78.9,69.1,30.02,SE,127,0.0,5.0,72,0.00,,,0.00,VWS V14.01,2013-07-11 04:26:00,
2013-07-10 23:31:00,78.7,68.9,30.02,SE,127,0.0,5.0,72,0.00,,,0.00,VWS V14.01,2013-07-11 04:31:00,
2013-07-10 23:36:00,78.4,69.0,30.02,SE,127,0.0,5.0,73,0.00,,,0.00,VWS V14.01,2013-07-11 04:36:00,
2013-07-10 23:41:00,78.1,68.8,30.02,SE,127,0.0,5.0,73,0.00,,,0.00,VWS V14.01,2013-07-11 04:41:00,
2013-07-10 23:46:00,77.8,68.9,30.02,SE,127,0.0,5.0,74,0.00,,,0.00,VWS V14.01,2013-07-11 04:46:00,
2013-07-10 23:51:00,77.7,68.8,30.02,SE,127,0.0,5.0,74,0.00,,,0.00,VWS V14.01,2013-07-11 04:51:00,
2013-07-10 23:56:00,77.5,69.0,30.02,SE,127,0.0,5.0,75,0.00,,,0.00,VWS V14.01,2013-07-11 04:56:00,